sensor_id;sensor_type;location;lat;lon;timestamp;P1;durP1;ratioP1;P2;durP2;ratioP2
67869;SDS011;54673;52.262;6.830;2022-11-12T00:00:44;4.65;;;1.90;;
67869;SDS011;54673;52.262;6.830;2022-11-12T00:03:10;4.30;;;1.87;;
67869;SDS011;54673;52.262;6.830;2022-11-12T00:05:35;5.18;;;2.33;;
67869;SDS011;54673;52.262;6.830;2022-11-12T00:08:01;3.37;;;2.07;;
67869;SDS011;54673;52.262;6.830;2022-11-12T00:10:27;4.78;;;2.28;;
67869;SDS011;54673;52.262;6.830;2022-11-12T00:12:52;4.50;;;1.97;;
67869;SDS011;54673;52.262;6.830;2022-11-12T00:15:19;3.85;;;2.13;;
67869;SDS011;54673;52.262;6.830;2022-11-12T00:17:45;3.23;;;2.20;;
67869;SDS011;54673;52.262;6.830;2022-11-12T00:20:10;3.08;;;2.33;;
67869;SDS011;54673;52.262;6.830;2022-11-12T00:22:36;5.37;;;2.57;;
67869;SDS011;54673;52.262;6.830;2022-11-12T00:25:02;3.30;;;2.28;;
67869;SDS011;54673;52.262;6.830;2022-11-12T00:27:28;3.37;;;2.03;;
67869;SDS011;54673;52.262;6.830;2022-11-12T00:29:56;3.35;;;1.80;;
67869;SDS011;54673;52.262;6.830;2022-11-12T00:32:21;5.03;;;2.27;;
67869;SDS011;54673;52.262;6.830;2022-11-12T00:34:47;3.30;;;2.25;;
67869;SDS011;54673;52.262;6.830;2022-11-12T00:37:12;3.67;;;2.27;;
67869;SDS011;54673;52.262;6.830;2022-11-12T00:39:38;2.57;;;2.17;;
67869;SDS011;54673;52.262;6.830;2022-11-12T00:42:03;2.75;;;2.20;;
67869;SDS011;54673;52.262;6.830;2022-11-12T00:44:29;3.83;;;2.30;;
67869;SDS011;54673;52.262;6.830;2022-11-12T00:46:55;4.05;;;2.40;;
67869;SDS011;54673;52.262;6.830;2022-11-12T00:49:21;2.73;;;2.17;;
67869;SDS011;54673;52.262;6.830;2022-11-12T00:51:47;4.28;;;2.20;;
67869;SDS011;54673;52.262;6.830;2022-11-12T00:54:13;2.47;;;1.90;;
67869;SDS011;54673;52.262;6.830;2022-11-12T00:56:39;2.80;;;2.20;;
67869;SDS011;54673;52.262;6.830;2022-11-12T00:59:05;3.20;;;2.30;;
67869;SDS011;54673;52.262;6.830;2022-11-12T01:01:31;2.47;;;2.00;;
67869;SDS011;54673;52.262;6.830;2022-11-12T01:03:57;3.87;;;2.00;;
67869;SDS011;54673;52.262;6.830;2022-11-12T01:06:23;4.67;;;1.90;;
67869;SDS011;54673;52.262;6.830;2022-11-12T01:08:49;2.83;;;2.25;;
67869;SDS011;54673;52.262;6.830;2022-11-12T01:11:17;3.17;;;2.00;;
67869;SDS011;54673;52.262;6.830;2022-11-12T01:13:45;3.33;;;1.85;;
67869;SDS011;54673;52.262;6.830;2022-11-12T01:16:13;3.05;;;2.25;;
67869;SDS011;54673;52.262;6.830;2022-11-12T01:18:41;2.30;;;2.03;;
67869;SDS011;54673;52.262;6.830;2022-11-12T01:21:07;3.45;;;2.03;;
67869;SDS011;54673;52.262;6.830;2022-11-12T01:23:33;4.30;;;2.00;;
67869;SDS011;54673;52.262;6.830;2022-11-12T01:26:13;3.28;;;2.50;;
67869;SDS011;54673;52.262;6.830;2022-11-12T01:28:41;2.47;;;2.08;;
67869;SDS011;54673;52.262;6.830;2022-11-12T01:33:56;2.70;;;1.90;;
67869;SDS011;54673;52.262;6.830;2022-11-12T01:36:24;2.07;;;1.67;;
67869;SDS011;54673;52.262;6.830;2022-11-12T01:38:51;3.10;;;2.40;;
67869;SDS011;54673;52.262;6.830;2022-11-12T01:41:19;4.20;;;2.30;;
67869;SDS011;54673;52.262;6.830;2022-11-12T01:43:46;2.87;;;2.03;;
67869;SDS011;54673;52.262;6.830;2022-11-12T01:48:51;2.90;;;2.00;;
67869;SDS011;54673;52.262;6.830;2022-11-12T01:51:23;2.72;;;2.00;;
67869;SDS011;54673;52.262;6.830;2022-11-12T01:53:59;3.28;;;2.05;;
67869;SDS011;54673;52.262;6.830;2022-11-12T01:56:28;2.70;;;2.20;;
67869;SDS011;54673;52.262;6.830;2022-11-12T01:58:58;3.22;;;2.35;;
67869;SDS011;54673;52.262;6.830;2022-11-12T02:01:27;3.00;;;2.17;;
67869;SDS011;54673;52.262;6.830;2022-11-12T02:03:52;3.03;;;2.20;;
67869;SDS011;54673;52.262;6.830;2022-11-12T02:06:18;3.13;;;2.20;;
67869;SDS011;54673;52.262;6.830;2022-11-12T02:08:45;3.70;;;2.00;;
67869;SDS011;54673;52.262;6.830;2022-11-12T02:11:11;3.13;;;2.13;;
67869;SDS011;54673;52.262;6.830;2022-11-12T02:13:39;2.90;;;2.23;;
67869;SDS011;54673;52.262;6.830;2022-11-12T02:16:26;2.92;;;2.40;;
67869;SDS011;54673;52.262;6.830;2022-11-12T02:18:56;3.67;;;1.90;;
67869;SDS011;54673;52.262;6.830;2022-11-12T02:21:22;3.38;;;2.30;;
67869;SDS011;54673;52.262;6.830;2022-11-12T02:26:37;3.20;;;2.38;;
67869;SDS011;54673;52.262;6.830;2022-11-12T02:29:05;2.97;;;2.00;;
67869;SDS011;54673;52.262;6.830;2022-11-12T02:31:31;2.20;;;1.80;;
67869;SDS011;54673;52.262;6.830;2022-11-12T02:33:57;2.40;;;2.00;;
67869;SDS011;54673;52.262;6.830;2022-11-12T02:36:22;3.37;;;2.03;;
67869;SDS011;54673;52.262;6.830;2022-11-12T02:38:48;3.00;;;2.20;;
67869;SDS011;54673;52.262;6.830;2022-11-12T02:41:14;3.50;;;2.20;;
67869;SDS011;54673;52.262;6.830;2022-11-12T02:43:40;2.25;;;1.63;;
67869;SDS011;54673;52.262;6.830;2022-11-12T02:46:05;2.77;;;2.00;;
67869;SDS011;54673;52.262;6.830;2022-11-12T02:48:31;3.45;;;2.15;;
67869;SDS011;54673;52.262;6.830;2022-11-12T02:50:57;3.75;;;2.40;;
67869;SDS011;54673;52.262;6.830;2022-11-12T02:53:23;3.23;;;2.30;;
67869;SDS011;54673;52.262;6.830;2022-11-12T02:55:48;3.17;;;2.10;;
67869;SDS011;54673;52.262;6.830;2022-11-12T02:58:14;4.10;;;2.08;;
67869;SDS011;54673;52.262;6.830;2022-11-12T03:00:40;3.30;;;1.90;;
67869;SDS011;54673;52.262;6.830;2022-11-12T03:03:05;2.40;;;1.80;;
67869;SDS011;54673;52.262;6.830;2022-11-12T03:05:32;2.57;;;1.93;;
67869;SDS011;54673;52.262;6.830;2022-11-12T03:07:59;2.58;;;1.75;;
67869;SDS011;54673;52.262;6.830;2022-11-12T03:10:28;2.35;;;2.00;;
67869;SDS011;54673;52.262;6.830;2022-11-12T03:12:58;3.83;;;2.17;;
67869;SDS011;54673;52.262;6.830;2022-11-12T03:15:24;3.08;;;1.77;;
67869;SDS011;54673;52.262;6.830;2022-11-12T03:17:51;2.97;;;1.80;;
67869;SDS011;54673;52.262;6.830;2022-11-12T03:20:17;3.40;;;1.80;;
67869;SDS011;54673;52.262;6.830;2022-11-12T03:22:53;3.00;;;1.60;;
67869;SDS011;54673;52.262;6.830;2022-11-12T03:25:20;3.00;;;1.70;;
67869;SDS011;54673;52.262;6.830;2022-11-12T03:27:45;2.30;;;1.70;;
67869;SDS011;54673;52.262;6.830;2022-11-12T03:30:11;3.07;;;1.93;;
67869;SDS011;54673;52.262;6.830;2022-11-12T03:32:37;3.03;;;1.90;;
67869;SDS011;54673;52.262;6.830;2022-11-12T03:35:02;2.60;;;1.83;;
67869;SDS011;54673;52.262;6.830;2022-11-12T03:37:28;2.20;;;1.57;;
67869;SDS011;54673;52.262;6.830;2022-11-12T03:39:54;1.90;;;1.60;;
67869;SDS011;54673;52.262;6.830;2022-11-12T03:42:19;3.00;;;1.90;;
67869;SDS011;54673;52.262;6.830;2022-11-12T03:44:45;3.23;;;1.87;;
67869;SDS011;54673;52.262;6.830;2022-11-12T03:47:11;2.35;;;1.73;;
67869;SDS011;54673;52.262;6.830;2022-11-12T03:49:36;2.37;;;1.70;;
67869;SDS011;54673;52.262;6.830;2022-11-12T03:52:02;2.50;;;2.00;;
67869;SDS011;54673;52.262;6.830;2022-11-12T03:54:28;2.83;;;1.90;;
67869;SDS011;54673;52.262;6.830;2022-11-12T03:56:53;3.55;;;2.33;;
67869;SDS011;54673;52.262;6.830;2022-11-12T03:59:19;2.30;;;1.90;;
67869;SDS011;54673;52.262;6.830;2022-11-12T04:01:44;3.03;;;2.00;;
67869;SDS011;54673;52.262;6.830;2022-11-12T04:04:10;3.17;;;1.97;;
67869;SDS011;54673;52.262;6.830;2022-11-12T04:06:35;4.30;;;2.30;;
67869;SDS011;54673;52.262;6.830;2022-11-12T04:09:36;3.53;;;1.98;;
67869;SDS011;54673;52.262;6.830;2022-11-12T04:12:02;3.73;;;1.87;;
67869;SDS011;54673;52.262;6.830;2022-11-12T04:14:47;2.63;;;1.97;;
67869;SDS011;54673;52.262;6.830;2022-11-12T04:17:13;4.38;;;2.33;;
67869;SDS011;54673;52.262;6.830;2022-11-12T04:19:57;2.50;;;1.97;;
67869;SDS011;54673;52.262;6.830;2022-11-12T04:22:41;2.97;;;2.00;;
67869;SDS011;54673;52.262;6.830;2022-11-12T04:25:06;3.53;;;2.27;;
67869;SDS011;54673;52.262;6.830;2022-11-12T04:27:51;2.95;;;2.00;;
67869;SDS011;54673;52.262;6.830;2022-11-12T04:30:16;3.00;;;2.50;;
67869;SDS011;54673;52.262;6.830;2022-11-12T04:32:49;4.55;;;2.30;;
67869;SDS011;54673;52.262;6.830;2022-11-12T04:35:18;3.80;;;2.27;;
67869;SDS011;54673;52.262;6.830;2022-11-12T04:37:45;3.25;;;2.30;;
67869;SDS011;54673;52.262;6.830;2022-11-12T04:40:24;3.72;;;2.38;;
67869;SDS011;54673;52.262;6.830;2022-11-12T04:43:10;2.53;;;1.90;;
67869;SDS011;54673;52.262;6.830;2022-11-12T04:45:57;3.08;;;2.05;;
67869;SDS011;54673;52.262;6.830;2022-11-12T04:48:24;3.73;;;2.00;;
67869;SDS011;54673;52.262;6.830;2022-11-12T04:51:00;3.33;;;2.22;;
67869;SDS011;54673;52.262;6.830;2022-11-12T04:53:27;3.05;;;2.28;;
67869;SDS011;54673;52.262;6.830;2022-11-12T04:55:54;4.00;;;2.13;;
67869;SDS011;54673;52.262;6.830;2022-11-12T04:58:21;2.90;;;2.10;;
67869;SDS011;54673;52.262;6.830;2022-11-12T05:00:47;4.20;;;2.00;;
67869;SDS011;54673;52.262;6.830;2022-11-12T05:03:14;2.72;;;2.00;;
67869;SDS011;54673;52.262;6.830;2022-11-12T05:05:40;3.85;;;2.38;;
67869;SDS011;54673;52.262;6.830;2022-11-12T05:08:06;3.37;;;2.40;;
67869;SDS011;54673;52.262;6.830;2022-11-12T05:10:31;2.83;;;2.07;;
67869;SDS011;54673;52.262;6.830;2022-11-12T05:12:57;3.58;;;2.30;;
67869;SDS011;54673;52.262;6.830;2022-11-12T05:15:23;3.97;;;2.00;;
67869;SDS011;54673;52.262;6.830;2022-11-12T05:17:49;3.87;;;2.00;;
67869;SDS011;54673;52.262;6.830;2022-11-12T05:20:16;2.63;;;1.97;;
67869;SDS011;54673;52.262;6.830;2022-11-12T05:22:42;4.28;;;2.10;;
67869;SDS011;54673;52.262;6.830;2022-11-12T05:25:07;4.57;;;2.13;;
67869;SDS011;54673;52.262;6.830;2022-11-12T05:27:33;2.80;;;2.00;;
67869;SDS011;54673;52.262;6.830;2022-11-12T05:29:59;3.67;;;2.60;;
67869;SDS011;54673;52.262;6.830;2022-11-12T05:32:25;2.47;;;1.80;;
67869;SDS011;54673;52.262;6.830;2022-11-12T05:34:51;2.83;;;1.70;;
67869;SDS011;54673;52.262;6.830;2022-11-12T05:37:16;2.50;;;2.00;;
67869;SDS011;54673;52.262;6.830;2022-11-12T05:39:42;2.88;;;2.10;;
67869;SDS011;54673;52.262;6.830;2022-11-12T05:42:08;4.20;;;2.37;;
67869;SDS011;54673;52.262;6.830;2022-11-12T05:44:34;3.28;;;2.38;;
67869;SDS011;54673;52.262;6.830;2022-11-12T05:46:59;4.53;;;2.30;;
67869;SDS011;54673;52.262;6.830;2022-11-12T05:49:25;2.67;;;1.80;;
67869;SDS011;54673;52.262;6.830;2022-11-12T05:51:51;3.15;;;2.28;;
67869;SDS011;54673;52.262;6.830;2022-11-12T05:54:16;2.10;;;1.80;;
67869;SDS011;54673;52.262;6.830;2022-11-12T05:56:42;3.08;;;2.00;;
67869;SDS011;54673;52.262;6.830;2022-11-12T05:59:09;2.13;;;1.60;;
67869;SDS011;54673;52.262;6.830;2022-11-12T06:01:36;2.17;;;1.98;;
67869;SDS011;54673;52.262;6.830;2022-11-12T06:04:08;2.75;;;1.80;;
67869;SDS011;54673;52.262;6.830;2022-11-12T06:06:43;3.80;;;2.00;;
67869;SDS011;54673;52.262;6.830;2022-11-12T06:09:09;2.63;;;1.90;;
67869;SDS011;54673;52.262;6.830;2022-11-12T06:11:35;2.97;;;1.90;;
67869;SDS011;54673;52.262;6.830;2022-11-12T06:14:02;1.88;;;1.63;;
67869;SDS011;54673;52.262;6.830;2022-11-12T06:16:29;2.55;;;1.50;;
67869;SDS011;54673;52.262;6.830;2022-11-12T06:18:55;3.80;;;1.90;;
67869;SDS011;54673;52.262;6.830;2022-11-12T06:21:21;2.20;;;1.70;;
67869;SDS011;54673;52.262;6.830;2022-11-12T06:23:51;1.87;;;1.63;;
67869;SDS011;54673;52.262;6.830;2022-11-12T06:26:21;4.05;;;1.60;;
67869;SDS011;54673;52.262;6.830;2022-11-12T06:28:48;4.20;;;1.90;;
67869;SDS011;54673;52.262;6.830;2022-11-12T06:31:15;3.58;;;1.65;;
67869;SDS011;54673;52.262;6.830;2022-11-12T06:33:41;2.85;;;1.70;;
67869;SDS011;54673;52.262;6.830;2022-11-12T06:36:09;2.17;;;1.70;;
67869;SDS011;54673;52.262;6.830;2022-11-12T06:38:36;2.10;;;1.70;;
67869;SDS011;54673;52.262;6.830;2022-11-12T06:41:04;3.37;;;1.73;;
67869;SDS011;54673;52.262;6.830;2022-11-12T06:43:30;2.80;;;1.55;;
67869;SDS011;54673;52.262;6.830;2022-11-12T06:46:00;3.03;;;1.75;;
67869;SDS011;54673;52.262;6.830;2022-11-12T06:48:27;2.23;;;1.57;;
67869;SDS011;54673;52.262;6.830;2022-11-12T06:50:53;2.38;;;1.80;;
67869;SDS011;54673;52.262;6.830;2022-11-12T06:53:19;2.00;;;1.80;;
67869;SDS011;54673;52.262;6.830;2022-11-12T06:55:45;2.83;;;1.77;;
67869;SDS011;54673;52.262;6.830;2022-11-12T06:58:11;2.07;;;1.70;;
67869;SDS011;54673;52.262;6.830;2022-11-12T07:00:36;2.58;;;1.80;;
67869;SDS011;54673;52.262;6.830;2022-11-12T07:03:05;2.60;;;1.53;;
67869;SDS011;54673;52.262;6.830;2022-11-12T07:05:36;2.47;;;1.67;;
67869;SDS011;54673;52.262;6.830;2022-11-12T07:08:02;2.63;;;1.67;;
67869;SDS011;54673;52.262;6.830;2022-11-12T07:10:29;2.50;;;1.90;;
67869;SDS011;54673;52.262;6.830;2022-11-12T07:12:54;3.10;;;1.83;;
67869;SDS011;54673;52.262;6.830;2022-11-12T07:15:20;2.45;;;1.70;;
67869;SDS011;54673;52.262;6.830;2022-11-12T07:17:46;3.87;;;1.80;;
67869;SDS011;54673;52.262;6.830;2022-11-12T07:20:12;2.40;;;1.85;;
67869;SDS011;54673;52.262;6.830;2022-11-12T07:22:37;3.70;;;2.00;;
67869;SDS011;54673;52.262;6.830;2022-11-12T07:25:03;2.05;;;1.52;;
67869;SDS011;54673;52.262;6.830;2022-11-12T07:27:29;2.47;;;1.80;;
67869;SDS011;54673;52.262;6.830;2022-11-12T07:29:55;2.35;;;1.80;;
67869;SDS011;54673;52.262;6.830;2022-11-12T07:32:21;3.15;;;1.60;;
67869;SDS011;54673;52.262;6.830;2022-11-12T07:34:47;3.10;;;1.70;;
67869;SDS011;54673;52.262;6.830;2022-11-12T07:37:12;2.27;;;1.67;;
67869;SDS011;54673;52.262;6.830;2022-11-12T07:39:38;2.40;;;1.52;;
67869;SDS011;54673;52.262;6.830;2022-11-12T07:42:03;2.60;;;1.60;;
67869;SDS011;54673;52.262;6.830;2022-11-12T07:44:29;1.65;;;1.35;;
67869;SDS011;54673;52.262;6.830;2022-11-12T07:46:55;4.50;;;1.73;;
67869;SDS011;54673;52.262;6.830;2022-11-12T07:49:20;2.63;;;1.50;;
67869;SDS011;54673;52.262;6.830;2022-11-12T07:51:46;3.53;;;1.70;;
67869;SDS011;54673;52.262;6.830;2022-11-12T07:54:12;4.83;;;1.57;;
67869;SDS011;54673;52.262;6.830;2022-11-12T07:56:37;2.42;;;1.55;;
67869;SDS011;54673;52.262;6.830;2022-11-12T07:59:03;2.00;;;1.60;;
67869;SDS011;54673;52.262;6.830;2022-11-12T08:04:00;2.33;;;1.70;;
67869;SDS011;54673;52.262;6.830;2022-11-12T08:06:27;3.93;;;1.40;;
67869;SDS011;54673;52.262;6.830;2022-11-12T08:08:55;3.22;;;1.70;;
67869;SDS011;54673;52.262;6.830;2022-11-12T08:11:21;2.87;;;1.50;;
67869;SDS011;54673;52.262;6.830;2022-11-12T08:13:48;4.68;;;1.88;;
67869;SDS011;54673;52.262;6.830;2022-11-12T08:16:14;2.53;;;1.60;;
67869;SDS011;54673;52.262;6.830;2022-11-12T08:18:39;4.83;;;1.80;;
67869;SDS011;54673;52.262;6.830;2022-11-12T08:21:06;2.50;;;1.90;;
67869;SDS011;54673;52.262;6.830;2022-11-12T08:23:35;2.23;;;1.50;;
67869;SDS011;54673;52.262;6.830;2022-11-12T08:26:01;4.35;;;1.95;;
67869;SDS011;54673;52.262;6.830;2022-11-12T08:28:28;5.80;;;2.13;;
67869;SDS011;54673;52.262;6.830;2022-11-12T08:30:55;3.70;;;2.22;;
67869;SDS011;54673;52.262;6.830;2022-11-12T08:33:21;4.43;;;2.80;;
67869;SDS011;54673;52.262;6.830;2022-11-12T08:35:47;3.22;;;2.40;;
67869;SDS011;54673;52.262;6.830;2022-11-12T08:38:13;9.13;;;2.70;;
67869;SDS011;54673;52.262;6.830;2022-11-12T08:40:39;5.80;;;3.13;;
67869;SDS011;54673;52.262;6.830;2022-11-12T08:43:05;4.53;;;2.80;;
67869;SDS011;54673;52.262;6.830;2022-11-12T08:45:32;5.53;;;2.90;;
67869;SDS011;54673;52.262;6.830;2022-11-12T08:48:00;5.80;;;2.70;;
67869;SDS011;54673;52.262;6.830;2022-11-12T08:50:27;5.85;;;3.03;;
67869;SDS011;54673;52.262;6.830;2022-11-12T08:52:53;4.67;;;2.73;;
67869;SDS011;54673;52.262;6.830;2022-11-12T08:55:27;5.75;;;2.60;;
67869;SDS011;54673;52.262;6.830;2022-11-12T08:57:54;4.57;;;2.83;;
67869;SDS011;54673;52.262;6.830;2022-11-12T09:00:23;6.13;;;2.95;;
67869;SDS011;54673;52.262;6.830;2022-11-12T09:02:48;5.10;;;3.00;;
67869;SDS011;54673;52.262;6.830;2022-11-12T09:05:14;6.18;;;3.55;;
67869;SDS011;54673;52.262;6.830;2022-11-12T09:07:40;4.73;;;3.03;;
67869;SDS011;54673;52.262;6.830;2022-11-12T09:10:05;6.55;;;3.45;;
67869;SDS011;54673;52.262;6.830;2022-11-12T09:12:31;5.90;;;3.60;;
67869;SDS011;54673;52.262;6.830;2022-11-12T09:14:57;6.22;;;3.53;;
67869;SDS011;54673;52.262;6.830;2022-11-12T09:17:22;5.23;;;3.17;;
67869;SDS011;54673;52.262;6.830;2022-11-12T09:19:48;7.40;;;3.70;;
67869;SDS011;54673;52.262;6.830;2022-11-12T09:22:13;8.32;;;3.97;;
67869;SDS011;54673;52.262;6.830;2022-11-12T09:24:39;6.43;;;4.00;;
67869;SDS011;54673;52.262;6.830;2022-11-12T09:27:05;7.93;;;3.45;;
67869;SDS011;54673;52.262;6.830;2022-11-12T09:29:30;7.87;;;3.70;;
67869;SDS011;54673;52.262;6.830;2022-11-12T09:31:56;5.87;;;3.70;;
67869;SDS011;54673;52.262;6.830;2022-11-12T09:34:23;6.78;;;3.90;;
67869;SDS011;54673;52.262;6.830;2022-11-12T09:36:49;7.43;;;3.92;;
67869;SDS011;54673;52.262;6.830;2022-11-12T09:39:15;6.77;;;3.50;;
67869;SDS011;54673;52.262;6.830;2022-11-12T09:41:40;8.03;;;3.97;;
67869;SDS011;54673;52.262;6.830;2022-11-12T09:44:11;6.35;;;3.22;;
67869;SDS011;54673;52.262;6.830;2022-11-12T09:49:13;5.18;;;3.60;;
67869;SDS011;54673;52.262;6.830;2022-11-12T09:54:30;7.30;;;3.57;;
67869;SDS011;54673;52.262;6.830;2022-11-12T09:56:57;6.45;;;3.67;;
67869;SDS011;54673;52.262;6.830;2022-11-12T09:59:23;6.63;;;3.53;;
67869;SDS011;54673;52.262;6.830;2022-11-12T10:01:58;11.80;;;3.40;;
67869;SDS011;54673;52.262;6.830;2022-11-12T10:06:56;8.70;;;3.33;;
67869;SDS011;54673;52.262;6.830;2022-11-12T10:09:39;7.75;;;3.13;;
67869;SDS011;54673;52.262;6.830;2022-11-12T10:23:50;4.97;;;2.55;;
67869;SDS011;54673;52.262;6.830;2022-11-12T10:26:18;6.37;;;2.70;;
67869;SDS011;54673;52.262;6.830;2022-11-12T10:28:46;7.65;;;2.88;;
67869;SDS011;54673;52.262;6.830;2022-11-12T10:31:19;5.70;;;2.67;;
67869;SDS011;54673;52.262;6.830;2022-11-12T10:33:45;6.60;;;2.50;;
67869;SDS011;54673;52.262;6.830;2022-11-12T10:38:48;5.80;;;2.50;;
67869;SDS011;54673;52.262;6.830;2022-11-12T10:41:30;6.45;;;2.63;;
67869;SDS011;54673;52.262;6.830;2022-11-12T10:43:58;4.50;;;2.55;;
67869;SDS011;54673;52.262;6.830;2022-11-12T10:46:32;4.37;;;2.70;;
67869;SDS011;54673;52.262;6.830;2022-11-12T10:51:39;4.47;;;2.47;;
67869;SDS011;54673;52.262;6.830;2022-11-12T10:57:20;6.85;;;2.67;;
67869;SDS011;54673;52.262;6.830;2022-11-12T11:00:05;6.80;;;2.60;;
67869;SDS011;54673;52.262;6.830;2022-11-12T11:02:49;5.03;;;2.40;;
67869;SDS011;54673;52.262;6.830;2022-11-12T11:07:55;6.45;;;2.38;;
67869;SDS011;54673;52.262;6.830;2022-11-12T11:10:26;4.78;;;2.15;;
67869;SDS011;54673;52.262;6.830;2022-11-12T11:13:15;3.83;;;2.37;;
67869;SDS011;54673;52.262;6.830;2022-11-12T11:16:03;6.68;;;2.65;;
67869;SDS011;54673;52.262;6.830;2022-11-12T11:18:33;4.23;;;2.37;;
67869;SDS011;54673;52.262;6.830;2022-11-12T11:21:13;3.50;;;2.13;;
67869;SDS011;54673;52.262;6.830;2022-11-12T11:27:11;3.73;;;2.40;;
67869;SDS011;54673;52.262;6.830;2022-11-12T11:29:59;5.22;;;2.28;;
67869;SDS011;54673;52.262;6.830;2022-11-12T12:03:30;3.63;;;2.00;;
67869;SDS011;54673;52.262;6.830;2022-11-12T12:17:12;6.15;;;2.40;;
67869;SDS011;54673;52.262;6.830;2022-11-12T12:19:54;3.42;;;2.20;;
67869;SDS011;54673;52.262;6.830;2022-11-12T12:22:31;2.93;;;1.93;;
67869;SDS011;54673;52.262;6.830;2022-11-12T12:25:24;3.05;;;2.30;;
67869;SDS011;54673;52.262;6.830;2022-11-12T12:28:05;2.60;;;2.20;;
67869;SDS011;54673;52.262;6.830;2022-11-12T12:30:53;4.47;;;2.30;;
67869;SDS011;54673;52.262;6.830;2022-11-12T12:36:01;3.33;;;2.23;;
67869;SDS011;54673;52.262;6.830;2022-11-12T12:44:03;4.00;;;1.85;;
67869;SDS011;54673;52.262;6.830;2022-11-12T12:46:32;4.13;;;2.30;;
67869;SDS011;54673;52.262;6.830;2022-11-12T12:49:02;2.97;;;2.17;;
67869;SDS011;54673;52.262;6.830;2022-11-12T12:51:30;3.75;;;2.10;;
67869;SDS011;54673;52.262;6.830;2022-11-12T12:53:57;4.90;;;1.77;;
67869;SDS011;54673;52.262;6.830;2022-11-12T12:58:54;4.53;;;2.00;;
67869;SDS011;54673;52.262;6.830;2022-11-12T13:19:32;3.70;;;2.33;;
67869;SDS011;54673;52.262;6.830;2022-11-12T13:25:02;3.30;;;2.07;;
67869;SDS011;54673;52.262;6.830;2022-11-12T13:40:43;4.23;;;1.80;;
67869;SDS011;54673;52.262;6.830;2022-11-12T13:43:17;2.88;;;1.70;;
67869;SDS011;54673;52.262;6.830;2022-11-12T13:48:37;2.43;;;1.60;;
67869;SDS011;54673;52.262;6.830;2022-11-12T13:51:16;4.68;;;1.92;;
67869;SDS011;54673;52.262;6.830;2022-11-12T13:53:42;3.70;;;1.90;;
67869;SDS011;54673;52.262;6.830;2022-11-12T13:56:09;4.35;;;1.63;;
67869;SDS011;54673;52.262;6.830;2022-11-12T13:58:36;2.88;;;1.67;;
67869;SDS011;54673;52.262;6.830;2022-11-12T14:01:04;3.43;;;1.90;;
67869;SDS011;54673;52.262;6.830;2022-11-12T14:03:52;5.25;;;1.85;;
67869;SDS011;54673;52.262;6.830;2022-11-12T14:11:47;4.27;;;1.70;;
67869;SDS011;54673;52.262;6.830;2022-11-12T14:14:38;2.67;;;1.63;;
67869;SDS011;54673;52.262;6.830;2022-11-12T14:23:02;2.53;;;1.58;;
67869;SDS011;54673;52.262;6.830;2022-11-12T14:25:49;2.77;;;1.77;;
67869;SDS011;54673;52.262;6.830;2022-11-12T14:28:24;2.40;;;1.60;;
67869;SDS011;54673;52.262;6.830;2022-11-12T14:30:53;2.78;;;1.73;;
67869;SDS011;54673;52.262;6.830;2022-11-12T14:33:20;3.47;;;1.83;;
67869;SDS011;54673;52.262;6.830;2022-11-12T14:35:47;2.88;;;1.70;;
67869;SDS011;54673;52.262;6.830;2022-11-12T14:38:16;2.70;;;1.63;;
67869;SDS011;54673;52.262;6.830;2022-11-12T14:43:18;1.90;;;1.58;;
67869;SDS011;54673;52.262;6.830;2022-11-12T14:45:48;2.63;;;1.80;;
67869;SDS011;54673;52.262;6.830;2022-11-12T14:48:16;1.95;;;1.50;;
67869;SDS011;54673;52.262;6.830;2022-11-12T14:50:43;1.97;;;1.60;;
67869;SDS011;54673;52.262;6.830;2022-11-12T14:53:33;1.75;;;1.50;;
67869;SDS011;54673;52.262;6.830;2022-11-12T14:55:59;3.28;;;1.75;;
67869;SDS011;54673;52.262;6.830;2022-11-12T14:58:27;2.40;;;1.87;;
67869;SDS011;54673;52.262;6.830;2022-11-12T15:00:53;2.72;;;1.80;;
67869;SDS011;54673;52.262;6.830;2022-11-12T15:03:21;3.00;;;1.50;;
67869;SDS011;54673;52.262;6.830;2022-11-12T15:08:30;2.08;;;1.50;;
67869;SDS011;54673;52.262;6.830;2022-11-12T15:11:17;3.50;;;1.30;;
67869;SDS011;54673;52.262;6.830;2022-11-12T15:13:54;2.33;;;1.60;;
67869;SDS011;54673;52.262;6.830;2022-11-12T15:16:26;2.77;;;1.33;;
67869;SDS011;54673;52.262;6.830;2022-11-12T15:19:04;3.50;;;1.70;;
67869;SDS011;54673;52.262;6.830;2022-11-12T15:21:46;3.42;;;1.55;;
67869;SDS011;54673;52.262;6.830;2022-11-12T15:24:28;2.10;;;1.60;;
67869;SDS011;54673;52.262;6.830;2022-11-12T15:26:58;3.47;;;1.88;;
67869;SDS011;54673;52.262;6.830;2022-11-12T15:29:44;2.07;;;1.53;;
67869;SDS011;54673;52.262;6.830;2022-11-12T15:37:04;1.83;;;1.23;;
67869;SDS011;54673;52.262;6.830;2022-11-12T15:39:33;2.77;;;1.67;;
67869;SDS011;54673;52.262;6.830;2022-11-12T15:42:11;3.47;;;2.08;;
67869;SDS011;54673;52.262;6.830;2022-11-12T15:44:38;2.70;;;1.47;;
67869;SDS011;54673;52.262;6.830;2022-11-12T15:47:04;5.18;;;1.30;;
67869;SDS011;54673;52.262;6.830;2022-11-12T15:49:45;3.23;;;1.50;;
67869;SDS011;54673;52.262;6.830;2022-11-12T15:52:14;1.55;;;1.10;;
67869;SDS011;54673;52.262;6.830;2022-11-12T15:54:40;4.53;;;1.30;;
67869;SDS011;54673;52.262;6.830;2022-11-12T15:57:07;2.35;;;1.60;;
67869;SDS011;54673;52.262;6.830;2022-11-12T15:59:45;2.83;;;1.50;;
67869;SDS011;54673;52.262;6.830;2022-11-12T16:02:19;2.33;;;1.42;;
67869;SDS011;54673;52.262;6.830;2022-11-12T16:04:45;2.27;;;1.50;;
67869;SDS011;54673;52.262;6.830;2022-11-12T16:07:10;4.43;;;1.40;;
67869;SDS011;54673;52.262;6.830;2022-11-12T16:09:36;2.10;;;1.30;;
67869;SDS011;54673;52.262;6.830;2022-11-12T16:12:03;3.80;;;1.40;;
67869;SDS011;54673;52.262;6.830;2022-11-12T16:14:28;1.83;;;1.33;;
67869;SDS011;54673;52.262;6.830;2022-11-12T16:16:55;2.47;;;1.50;;
67869;SDS011;54673;52.262;6.830;2022-11-12T16:19:21;1.73;;;1.40;;
67869;SDS011;54673;52.262;6.830;2022-11-12T16:21:46;1.63;;;1.27;;
67869;SDS011;54673;52.262;6.830;2022-11-12T16:24:12;2.33;;;1.60;;
67869;SDS011;54673;52.262;6.830;2022-11-12T16:26:38;1.97;;;1.50;;
67869;SDS011;54673;52.262;6.830;2022-11-12T16:29:10;1.88;;;1.40;;
67869;SDS011;54673;52.262;6.830;2022-11-12T16:31:39;3.50;;;1.50;;
67869;SDS011;54673;52.262;6.830;2022-11-12T16:34:05;1.40;;;1.30;;
67869;SDS011;54673;52.262;6.830;2022-11-12T16:36:31;2.27;;;1.40;;
67869;SDS011;54673;52.262;6.830;2022-11-12T16:38:57;1.98;;;1.45;;
67869;SDS011;54673;52.262;6.830;2022-11-12T16:41:22;1.60;;;1.20;;
67869;SDS011;54673;52.262;6.830;2022-11-12T16:43:49;1.48;;;1.08;;
67869;SDS011;54673;52.262;6.830;2022-11-12T16:46:27;1.70;;;1.30;;
67869;SDS011;54673;52.262;6.830;2022-11-12T16:48:54;1.90;;;1.15;;
67869;SDS011;54673;52.262;6.830;2022-11-12T16:51:20;1.87;;;1.30;;
67869;SDS011;54673;52.262;6.830;2022-11-12T16:53:46;2.07;;;1.33;;
67869;SDS011;54673;52.262;6.830;2022-11-12T16:56:14;3.75;;;1.50;;
67869;SDS011;54673;52.262;6.830;2022-11-12T16:58:42;1.80;;;1.43;;
67869;SDS011;54673;52.262;6.830;2022-11-12T17:01:24;2.85;;;1.40;;
67869;SDS011;54673;52.262;6.830;2022-11-12T17:03:55;2.35;;;1.50;;
67869;SDS011;54673;52.262;6.830;2022-11-12T17:06:22;2.60;;;1.57;;
67869;SDS011;54673;52.262;6.830;2022-11-12T17:08:52;3.05;;;1.30;;
67869;SDS011;54673;52.262;6.830;2022-11-12T17:11:18;2.57;;;1.50;;
67869;SDS011;54673;52.262;6.830;2022-11-12T17:13:44;4.15;;;1.40;;
67869;SDS011;54673;52.262;6.830;2022-11-12T17:16:09;5.93;;;1.30;;
67869;SDS011;54673;52.262;6.830;2022-11-12T17:18:35;3.03;;;1.75;;
67869;SDS011;54673;52.262;6.830;2022-11-12T17:21:09;2.65;;;1.65;;
67869;SDS011;54673;52.262;6.830;2022-11-12T17:23:36;2.07;;;1.50;;
67869;SDS011;54673;52.262;6.830;2022-11-12T17:26:03;3.78;;;1.60;;
67869;SDS011;54673;52.262;6.830;2022-11-12T17:28:31;2.53;;;1.50;;
67869;SDS011;54673;52.262;6.830;2022-11-12T17:31:06;1.60;;;1.40;;
67869;SDS011;54673;52.262;6.830;2022-11-12T17:33:38;1.70;;;1.60;;